Log Lane Village, Colorado
Current Conditions -  °F | °C
As of 6:55 AM on Wednesday 26 Nov 2014 (Local Time) from KFMM Reporting Station
Overcast Overcast  
Wind Chill: 21°   Ceiling: 4600
Heat Index: 27°   Visibility: 10mi
Dew Point: 24°   Wind: 5mph
Humidity: 92%   Direction: 280°W
Pressure: 30.22"   Gusts: NA
Location:  40.27°N, 103.83°W
Report Text: KFMM 261355Z AUTO 28004KT 10SM BKN046 BKN065 OVC085 M03/M04 A3022 RMK AO2 T10301042
Loading
Personal Weather Stations






























Interactive Weather Map New forecast layout! Learn more

10-Day Weather Forecast

Advertisements
Track Severe Weather on mobile